Enter the Airport ICAO Code

Search by Airport or City

Current Weather

GCFV | Fuerteventura Airport

Fuerteventura, Canary Islands, Spain

Last Update 33 Minutes Ago

Temperature of // ºC

Moderate Winds from NorthEast

Temperature

// ºC

Dew Point Temperature

// ºC

Relative Humidity

100 %

Wind Direction

NorthEast (040º, Without Significant Variations)

Wind Velocity

26 km/h (14 kt)

Gusts

None

Visibility

Greater than 10 Kilometers

Sea Level Pressure

Layers of Clouds

None

METAR GCFV 202300Z AUTO 04014KT 9999 ////// 22/19 Q1020

Weather Forecast

GCFV | Fuerteventura Airport

Fuerteventura, Canary Islands, Spain

Forecast valid for the next 21 Hours

From now on it is expected:

Partly Cloudy Sky

Light to Moderate Winds from NorthEast

Maximum Temperature

25 ºC in 11 Hours

Minimum Temperature

21 ºC in 6 Hours

TAF GCFV 202000Z 2021/2121 03009KT 9999 SCT020 TX25/2111Z TN21/2106Z